createdAt,value
2023-02-27T00:00:14.671Z,95598.81
2023-02-27T00:02:42.907Z,95594.72
2023-02-27T00:05:11.641Z,95598.81
2023-02-27T00:07:39.703Z,95596.97
2023-02-27T00:10:11.795Z,95591.25
2023-02-27T00:12:39.792Z,95593.28
2023-02-27T00:15:09.642Z,95587.16
2023-02-27T00:17:37.962Z,95593.28
2023-02-27T00:20:07.149Z,95599.44
2023-02-27T00:22:34.906Z,95598.00
2023-02-27T00:25:02.654Z,95600.28
2023-02-27T00:27:34.577Z,95593.31
2023-02-27T00:30:02.559Z,95596.16
2023-02-27T00:32:30.429Z,95602.53
2023-02-27T00:35:01.642Z,95601.91
2023-02-27T00:37:30.080Z,95603.13
2023-02-27T00:39:57.807Z,95611.72
2023-02-27T00:42:25.505Z,95609.06
2023-02-27T00:44:54.600Z,95606.59
2023-02-27T00:47:24.556Z,95599.25
2023-02-27T00:49:52.249Z,95596.38
2023-02-27T00:52:20.003Z,95596.16
2023-02-27T00:54:50.372Z,95599.66
2023-02-27T00:57:19.830Z,95604.97
2023-02-27T00:59:48.549Z,95602.09
2023-02-27T01:02:17.696Z,95599.66
2023-02-27T01:04:48.792Z,95609.06
2023-02-27T01:07:16.539Z,95606.81
2023-02-27T01:09:44.767Z,95593.72
2023-02-27T01:12:12.551Z,95600.06
2023-02-27T01:14:40.532Z,95600.69
2023-02-27T01:17:08.289Z,95597.81
2023-02-27T01:19:37.518Z,95600.06
2023-02-27T01:22:06.177Z,95598.63
2023-02-27T01:24:34.166Z,95597.41
2023-02-27T01:27:01.888Z,95593.13
2023-02-27T01:29:29.605Z,95595.16
2023-02-27T01:31:57.526Z,95591.69
2023-02-27T01:34:25.360Z,95599.44
2023-02-27T01:36:54.451Z,95601.69
2023-02-27T01:39:22.207Z,95607.22
2023-02-27T01:41:49.906Z,95607.22
2023-02-27T01:44:17.630Z,95603.34
2023-02-27T01:46:48.096Z,95606.41
2023-02-27T01:49:19.383Z,95607.41
2023-02-27T01:51:49.483Z,95607.22
2023-02-27T01:54:25.434Z,95610.69
2023-02-27T01:56:53.637Z,95613.16
2023-02-27T01:59:22.710Z,95612.56
2023-02-27T02:01:51.141Z,95618.28
2023-02-27T02:04:25.596Z,95619.06
2023-02-27T02:06:59.173Z,95614.38
2023-02-27T02:09:30.512Z,95622.97
2023-02-27T02:12:00.419Z,95618.03
2023-02-27T02:14:28.424Z,95622.53
2023-02-27T02:17:21.466Z,95619.28
2023-02-27T02:20:09.151Z,95613.16
2023-02-27T02:23:12.419Z,95619.47
2023-02-27T02:26:19.745Z,95618.03
2023-02-27T02:29:17.432Z,95607.41
2023-02-27T02:32:10.764Z,95615.59
2023-02-27T02:35:05.667Z,95619.91
2023-02-27T02:38:18.063Z,95609.69
2023-02-27T02:40:55.046Z,95608.25
2023-02-27T02:43:33.190Z,95609.47
2023-02-27T02:46:10.152Z,95607.84
2023-02-27T02:48:48.008Z,95608.66
2023-02-27T02:51:27.569Z,95604.34
2023-02-27T02:54:03.737Z,95609.47
2023-02-27T02:56:37.308Z,95615.16
2023-02-27T02:59:11.814Z,95616.00
2023-02-27T03:01:44.896Z,95610.88
2023-02-27T03:04:20.864Z,95613.75
2023-02-27T03:06:54.171Z,95610.28
2023-02-27T03:09:28.715Z,95614.81
2023-02-27T03:12:04.297Z,95610.91
2023-02-27T03:14:41.490Z,95608.25
2023-02-27T03:17:15.608Z,95610.28
2023-02-27T03:19:50.924Z,95614.78
2023-02-27T03:22:20.407Z,95611.31
2023-02-27T03:24:53.902Z,95607.63
2023-02-27T03:27:33.908Z,95617.84
2023-02-27T03:30:06.386Z,95615.41
2023-02-27T03:32:39.169Z,95615.41
2023-02-27T03:35:08.576Z,95617.84
2023-02-27T03:37:44.956Z,95625.19
2023-02-27T03:40:25.130Z,95621.53
2023-02-27T03:43:02.847Z,95615.00
2023-02-27T03:45:37.473Z,95620.91
2023-02-27T03:48:11.290Z,95623.16
2023-02-27T03:50:39.623Z,95626.44
2023-02-27T03:53:15.220Z,95632.38
2023-02-27T03:55:45.329Z,95625.84
2023-02-27T03:58:15.126Z,95635.44
2023-02-27T04:00:43.750Z,95636.06
2023-02-27T04:03:12.187Z,95633.38
2023-02-27T04:05:43.772Z,95633.81
2023-02-27T04:08:24.131Z,95628.69
2023-02-27T04:11:12.092Z,95633.00
2023-02-27T04:14:09.744Z,95634.22
2023-02-27T04:17:02.291Z,95634.81
2023-02-27T04:19:45.757Z,95639.31
2023-02-27T04:22:27.581Z,95645.03
2023-02-27T04:25:02.570Z,95640.94
2023-02-27T04:27:38.786Z,95639.53
2023-02-27T04:30:20.811Z,95645.03
2023-02-27T04:32:53.477Z,95636.28
2023-02-27T04:35:31.442Z,95648.09
2023-02-27T04:38:03.550Z,95643.00
2023-02-27T04:40:39.144Z,95643.41
2023-02-27T04:43:13.400Z,95641.16
2023-02-27T04:45:44.709Z,95638.69
2023-02-27T04:48:19.661Z,95643.63
2023-02-27T04:50:53.833Z,95638.28
2023-02-27T04:53:26.481Z,95629.72
2023-02-27T04:55:58.847Z,95634.41
2023-02-27T04:58:36.208Z,95632.38
2023-02-27T05:01:12.713Z,95634.19
2023-02-27T05:03:46.730Z,95634.41
2023-02-27T05:06:28.638Z,95629.72
2023-02-27T05:09:02.306Z,95627.03
2023-02-27T05:11:35.456Z,95631.34
2023-02-27T05:14:11.164Z,95628.69
2023-02-27T05:16:45.684Z,95618.22
2023-02-27T05:19:14.092Z,95630.09
2023-02-27T05:21:55.790Z,95635.22
2023-02-27T05:24:32.475Z,95629.69
2023-02-27T05:27:17.654Z,95625.19
2023-02-27T05:29:50.373Z,95640.50
2023-02-27T05:32:31.833Z,95632.94
2023-02-27T05:35:07.977Z,95636.22
2023-02-27T05:37:41.050Z,95639.66
2023-02-27T05:40:12.718Z,95639.88
2023-02-27T05:42:44.856Z,95636.41
2023-02-27T05:45:18.582Z,95631.69
2023-02-27T05:47:53.426Z,95647.19
2023-02-27T05:50:24.666Z,95636.38
2023-02-27T05:52:54.301Z,95639.22
2023-02-27T05:55:24.983Z,95641.25
2023-02-27T05:58:01.433Z,95640.25
2023-02-27T06:00:35.130Z,95645.16
2023-02-27T06:03:04.772Z,95640.88
2023-02-27T06:05:32.845Z,95645.97
2023-02-27T06:08:03.124Z,95643.53
2023-02-27T06:10:31.044Z,95644.56
2023-02-27T06:12:58.817Z,95648.88
2023-02-27T06:15:27.513Z,95654.22
2023-02-27T06:17:56.375Z,95656.03
2023-02-27T06:20:25.462Z,95648.25
2023-02-27T06:22:53.569Z,95656.88
2023-02-27T06:25:22.054Z,95655.47
2023-02-27T06:27:50.118Z,95654.44
2023-02-27T06:30:18.628Z,95659.34
2023-02-27T06:32:46.486Z,95661.63
2023-02-27T06:35:17.412Z,95665.28
2023-02-27T06:37:46.635Z,95669.78
2023-02-27T06:40:14.678Z,95663.03
2023-02-27T06:42:43.887Z,95663.25
2023-02-27T06:45:14.042Z,95666.94
2023-02-27T06:47:42.463Z,95665.09
2023-02-27T06:50:12.280Z,95663.25
2023-02-27T06:52:40.922Z,95666.31
2023-02-27T06:55:11.835Z,95663.84
2023-02-27T06:57:39.605Z,95665.28
2023-02-27T07:00:10.197Z,95664.66
2023-02-27T07:02:37.908Z,95667.13
2023-02-27T07:05:08.356Z,95658.72
2023-02-27T07:07:38.247Z,95664.22
2023-02-27T07:10:07.636Z,95658.66
2023-02-27T07:12:36.755Z,95658.41
2023-02-27T07:15:05.375Z,95656.94
2023-02-27T07:17:33.176Z,95670.44
2023-02-27T07:20:04.232Z,95660.59
2023-02-27T07:22:32.027Z,95658.31
2023-02-27T07:25:02.611Z,95659.28
2023-02-27T07:27:30.691Z,95649.59
2023-02-27T07:30:00.238Z,95657.78
2023-02-27T07:32:28.101Z,95666.53
2023-02-27T07:34:55.862Z,95670.97
2023-02-27T07:37:23.580Z,95662.97
2023-02-27T07:39:51.272Z,95666.03
2023-02-27T07:42:19.017Z,95670.09
2023-02-27T07:44:46.755Z,95673.09
2023-02-27T07:47:17.659Z,95672.25
2023-02-27T07:49:45.522Z,95673.16
2023-02-27T07:52:13.360Z,95667.78
2023-02-27T07:54:41.162Z,95674.28
2023-02-27T07:57:08.941Z,95676.66
2023-02-27T07:59:36.784Z,95672.78
2023-02-27T08:02:04.608Z,95675.78
2023-02-27T08:04:33.753Z,95676.50
2023-02-27T08:07:03.376Z,95673.47
2023-02-27T08:09:31.622Z,95677.34
2023-02-27T08:11:59.460Z,95683.25
2023-02-27T08:14:27.203Z,95682.00
2023-02-27T08:16:55.019Z,95671.97
2023-02-27T08:19:23.933Z,95684.47
2023-02-27T08:21:53.177Z,95682.31
2023-02-27T08:24:20.920Z,95684.84
2023-02-27T08:26:48.692Z,95684.06
2023-02-27T08:29:19.404Z,95691.09
2023-02-27T08:31:47.863Z,95689.03
2023-02-27T08:34:16.417Z,95687.41
2023-02-27T08:36:44.223Z,95692.22
2023-02-27T08:39:13.354Z,95702.09
2023-02-27T08:41:41.542Z,95701.94
2023-02-27T08:44:09.273Z,95701.91
2023-02-27T08:46:37.022Z,95700.97
2023-02-27T08:49:04.754Z,95694.19
2023-02-27T08:51:32.540Z,95700.34
2023-02-27T08:54:00.302Z,95710.28
2023-02-27T08:56:29.918Z,95708.38
2023-02-27T08:58:57.850Z,95711.72
2023-02-27T09:01:29.846Z,95720.28
2023-02-27T09:03:57.881Z,95722.72
2023-02-27T09:06:29.321Z,95721.19
2023-02-27T09:08:57.448Z,95715.19
2023-02-27T09:11:26.480Z,95719.19
2023-02-27T09:13:56.060Z,95708.50
2023-02-27T09:16:24.544Z,95718.78
2023-02-27T09:18:52.656Z,95720.06
2023-02-27T09:21:20.685Z,95715.94
2023-02-27T09:23:48.491Z,95724.56
2023-02-27T09:26:35.741Z,95719.47
2023-02-27T09:29:10.101Z,95728.25
2023-02-27T09:31:37.845Z,95717.81
2023-02-27T09:34:05.798Z,95721.25
2023-02-27T09:36:34.074Z,95738.59
2023-02-27T09:39:01.876Z,95737.50
2023-02-27T09:41:49.220Z,95747.94
2023-02-27T09:44:39.708Z,95749.44
2023-02-27T09:47:17.290Z,95750.16
2023-02-27T09:49:56.907Z,95760.13
2023-02-27T09:52:24.791Z,95758.84
2023-02-27T09:54:57.532Z,95757.50
2023-02-27T09:57:34.969Z,95750.78
2023-02-27T10:00:10.064Z,95755.94
2023-02-27T10:02:55.491Z,95761.66
2023-02-27T10:05:32.227Z,95754.44
2023-02-27T10:08:07.548Z,95762.25
2023-02-27T10:10:41.515Z,95762.16
2023-02-27T10:13:41.432Z,95755.97
2023-02-27T10:16:15.198Z,95764.59
2023-02-27T10:18:52.026Z,95769.97
2023-02-27T10:21:24.496Z,95778.00
2023-02-27T10:23:59.023Z,95779.31
2023-02-27T10:26:31.210Z,95778.34
2023-02-27T10:28:59.905Z,95769.63
2023-02-27T10:31:34.458Z,95764.34
2023-02-27T10:34:03.773Z,95772.59
2023-02-27T10:36:34.442Z,95772.19
2023-02-27T10:39:07.206Z,95772.66
2023-02-27T10:41:36.931Z,95771.69
2023-02-27T10:44:05.594Z,95779.19
2023-02-27T10:46:39.008Z,95776.56
2023-02-27T10:49:17.586Z,95783.88
2023-02-27T10:51:47.265Z,95789.75
2023-02-27T10:54:22.009Z,95780.53
2023-02-27T10:56:55.188Z,95782.34
2023-02-27T10:59:26.266Z,95780.75
2023-02-27T11:01:59.014Z,95786.13
2023-02-27T11:04:30.560Z,95780.22
2023-02-27T11:07:00.746Z,95789.19
2023-02-27T11:09:32.145Z,95788.38
2023-02-27T11:12:13.085Z,95789.31
2023-02-27T11:14:51.071Z,95790.25
2023-02-27T11:17:29.402Z,95785.25
2023-02-27T11:20:01.010Z,95787.22
2023-02-27T11:22:31.381Z,95779.72
2023-02-27T11:25:20.652Z,95779.53
2023-02-27T11:27:49.193Z,95777.78
2023-02-27T11:30:28.007Z,95777.63
2023-02-27T11:33:00.224Z,95783.22
2023-02-27T11:35:31.221Z,95781.00
2023-02-27T11:38:02.562Z,95773.91
2023-02-27T11:40:33.438Z,95774.47
2023-02-27T11:43:06.168Z,95772.00
2023-02-27T11:46:21.465Z,95779.13
2023-02-27T11:48:29.987Z,95764.00
2023-02-27T11:51:26.031Z,95767.09
2023-02-27T11:54:05.743Z,95772.81
2023-02-27T11:56:37.113Z,95765.59
2023-02-27T11:59:15.314Z,95767.47
2023-02-27T12:01:50.228Z,95763.00
2023-02-27T12:04:24.854Z,95762.97
2023-02-27T12:06:56.797Z,95767.88
2023-02-27T12:09:40.270Z,95766.66
2023-02-27T12:12:16.730Z,95770.19
2023-02-27T12:14:50.441Z,95768.56
2023-02-27T12:17:24.670Z,95766.69
2023-02-27T12:20:02.725Z,95768.53
2023-02-27T12:22:34.100Z,95768.97
2023-02-27T12:25:07.149Z,95768.50
2023-02-27T12:27:44.909Z,95779.13
2023-02-27T12:30:18.925Z,95778.22
2023-02-27T12:32:50.637Z,95779.75
2023-02-27T12:35:23.488Z,95776.38
2023-02-27T12:37:53.777Z,95775.09
2023-02-27T12:40:28.904Z,95781.13
2023-02-27T12:43:19.211Z,95767.53
2023-02-27T12:45:57.113Z,95776.38
2023-02-27T12:48:38.964Z,95771.47
2023-02-27T12:51:21.379Z,95772.06
2023-02-27T12:54:12.134Z,95769.16
2023-02-27T12:56:52.061Z,95778.69
2023-02-27T12:59:52.061Z,95772.63
2023-02-27T13:02:38.106Z,95765.28
2023-02-27T13:05:22.674Z,95779.13
2023-02-27T13:07:58.775Z,95771.56
2023-02-27T13:10:35.602Z,95778.22
2023-02-27T13:13:11.665Z,95774.38
2023-02-27T13:15:44.805Z,95770.06
2023-02-27T13:18:29.807Z,95774.03
2023-02-27T13:21:06.730Z,95775.88
2023-02-27T13:23:48.583Z,95773.56
2023-02-27T13:26:22.491Z,95782.41
2023-02-27T13:28:51.051Z,95779.88
2023-02-27T13:31:29.381Z,95782.31
2023-02-27T13:34:11.165Z,95784.56
2023-02-27T13:36:44.599Z,95782.94
2023-02-27T13:39:52.597Z,95773.88
2023-02-27T13:42:54.292Z,95770.00
2023-02-27T13:45:51.373Z,95783.22
2023-02-27T13:48:45.944Z,95774.91
2023-02-27T13:51:47.298Z,95782.03
2023-02-27T13:54:33.848Z,95780.78
2023-02-27T13:57:25.341Z,95782.41
2023-02-27T13:59:59.317Z,95781.84
2023-02-27T14:02:36.133Z,95780.34
2023-02-27T14:05:08.239Z,95778.72
2023-02-27T14:07:54.233Z,95772.31
2023-02-27T14:10:25.600Z,95782.25
2023-02-27T14:12:54.716Z,95780.69
2023-02-27T14:15:54.971Z,95777.78
2023-02-27T14:18:59.452Z,95775.91
2023-02-27T14:22:00.358Z,95774.38
2023-02-27T14:24:41.408Z,95782.09
2023-02-27T14:27:19.494Z,95779.50
2023-02-27T14:29:49.387Z,95777.06
2023-02-27T14:32:21.655Z,95786.16
2023-02-27T14:34:50.340Z,95774.16
2023-02-27T14:37:23.389Z,95770.19
2023-02-27T14:39:53.456Z,95782.63
2023-02-27T14:42:37.628Z,95776.31
2023-02-27T14:45:15.151Z,95777.16
2023-02-27T14:47:43.644Z,95776.44
2023-02-27T14:50:25.069Z,95780.31
2023-02-27T14:52:53.241Z,95778.09
2023-02-27T14:55:27.982Z,95779.41
2023-02-27T14:57:58.493Z,95781.13
2023-02-27T15:00:40.176Z,95787.69
2023-02-27T15:03:18.363Z,95792.44
2023-02-27T15:05:47.045Z,95788.47
2023-02-27T15:08:18.666Z,95790.66
2023-02-27T15:10:47.234Z,95796.59
2023-02-27T15:13:28.519Z,95806.19
2023-02-27T15:16:21.063Z,95798.25
2023-02-27T15:18:50.767Z,95793.06
2023-02-27T15:21:19.705Z,95800.28
2023-02-27T15:23:55.512Z,95798.69
2023-02-27T15:26:23.439Z,95804.31
2023-02-27T15:28:51.592Z,95806.09
2023-02-27T15:31:23.560Z,95805.97
2023-02-27T15:33:55.223Z,95806.09
2023-02-27T15:36:25.703Z,95817.47
2023-02-27T15:39:07.146Z,95804.69
2023-02-27T15:41:38.590Z,95815.66
2023-02-27T15:44:06.708Z,95819.28
2023-02-27T15:46:35.944Z,95814.47
2023-02-27T15:49:03.939Z,95815.38
2023-02-27T15:51:33.695Z,95821.88
2023-02-27T15:54:01.789Z,95824.41
2023-02-27T15:56:35.164Z,95822.03
2023-02-27T15:59:03.525Z,95831.44
2023-02-27T16:01:35.831Z,95823.47
2023-02-27T16:04:08.587Z,95822.81
2023-02-27T16:06:39.151Z,95839.50
2023-02-27T16:09:17.719Z,95829.63
2023-02-27T16:11:45.726Z,95842.41
2023-02-27T16:14:40.976Z,95835.56
2023-02-27T16:17:31.324Z,95846.91
2023-02-27T16:20:02.269Z,95850.44
2023-02-27T16:22:30.633Z,95849.19
2023-02-27T16:25:10.630Z,95861.31
2023-02-27T16:27:39.920Z,95851.13
2023-02-27T16:30:13.192Z,95861.59
2023-02-27T16:32:44.031Z,95854.66
2023-02-27T16:35:19.472Z,95859.41
2023-02-27T16:37:48.116Z,95866.16
2023-02-27T16:40:20.246Z,95875.00
2023-02-27T16:42:48.191Z,95872.16
2023-02-27T16:45:18.237Z,95875.06
2023-02-27T16:47:50.889Z,95878.13
2023-02-27T16:50:24.744Z,95881.00
2023-02-27T16:52:52.543Z,95885.34
2023-02-27T16:55:20.564Z,95888.22
2023-02-27T16:57:48.440Z,95884.94
2023-02-27T17:00:24.140Z,95887.81
2023-02-27T17:02:53.249Z,95885.13
2023-02-27T17:05:21.026Z,95891.13
2023-02-27T17:07:48.803Z,95897.06
2023-02-27T17:10:17.726Z,95900.72
2023-02-27T17:12:47.012Z,95902.41
2023-02-27T17:15:15.108Z,95905.88
2023-02-27T17:17:43.253Z,95920.22
2023-02-27T17:20:14.472Z,95916.13
2023-02-27T17:22:43.859Z,95915.31
2023-02-27T17:25:13.498Z,95917.97
2023-02-27T17:27:43.173Z,95925.34
2023-02-27T17:30:12.169Z,95929.47
2023-02-27T17:32:39.940Z,95920.03
2023-02-27T17:35:09.008Z,95921.69
2023-02-27T17:37:38.319Z,95929.69
2023-02-27T17:40:08.166Z,95933.34
2023-02-27T17:42:39.876Z,95937.66
2023-02-27T17:45:11.491Z,95935.84
2023-02-27T17:47:39.236Z,95941.16
2023-02-27T17:50:12.605Z,95950.38
2023-02-27T17:52:41.790Z,95948.13
2023-02-27T17:55:10.972Z,95954.06
2023-02-27T17:57:39.927Z,95957.34
2023-02-27T18:00:11.804Z,95955.06
2023-02-27T18:02:39.514Z,95964.09
2023-02-27T18:05:08.274Z,95961.81
2023-02-27T18:07:36.113Z,95958.38
2023-02-27T18:10:09.164Z,95963.47
2023-02-27T18:12:36.964Z,95973.53
2023-02-27T18:15:07.228Z,95972.06
2023-02-27T18:17:35.207Z,95974.72
2023-02-27T18:20:05.249Z,95974.75
2023-02-27T18:22:33.187Z,95976.19
2023-02-27T18:25:01.060Z,95965.72
2023-02-27T18:27:30.184Z,95980.88
2023-02-27T18:29:59.167Z,95981.09
2023-02-27T18:32:27.137Z,95980.03
2023-02-27T18:34:54.878Z,95977.63
2023-02-27T18:37:24.687Z,95981.88
2023-02-27T18:39:52.626Z,95978.81
2023-02-27T18:42:20.329Z,95978.63
2023-02-27T18:44:49.531Z,95974.53
2023-02-27T18:47:17.289Z,95983.94
2023-02-27T18:49:46.020Z,95979.81
2023-02-27T18:52:13.808Z,95978.78
2023-02-27T18:54:43.160Z,95987.00
2023-02-27T18:57:11.194Z,95990.44
2023-02-27T18:59:41.204Z,95987.16
2023-02-27T19:02:15.857Z,95992.50
2023-02-27T19:04:43.631Z,95990.22
2023-02-27T19:07:11.367Z,95994.72
2023-02-27T19:09:39.129Z,95992.47
2023-02-27T19:12:07.098Z,95997.38
2023-02-27T19:14:34.791Z,95995.53
2023-02-27T19:17:02.465Z,95999.38
2023-02-27T19:19:31.580Z,96002.06
2023-02-27T19:22:01.028Z,95999.00
2023-02-27T19:24:28.772Z,95996.53
2023-02-27T19:26:56.493Z,95998.97
2023-02-27T19:29:27.115Z,96000.41
2023-02-27T19:31:56.035Z,96001.81
2023-02-27T19:34:23.845Z,96000.97
2023-02-27T19:36:52.951Z,96007.94
2023-02-27T19:39:22.231Z,96002.59
2023-02-27T19:41:50.029Z,95997.06
2023-02-27T19:44:17.845Z,96002.59
2023-02-27T19:46:46.416Z,95999.31
2023-02-27T19:49:16.531Z,95999.09
2023-02-27T19:51:44.479Z,95997.25
2023-02-27T19:54:15.385Z,95996.19
2023-02-27T19:56:43.516Z,95991.94
2023-02-27T19:59:12.361Z,95990.28
2023-02-27T20:01:41.478Z,95992.94
2023-02-27T20:04:10.974Z,96001.13
2023-02-27T20:06:42.590Z,95998.00
2023-02-27T20:09:13.169Z,96001.84
2023-02-27T20:11:43.423Z,95991.06
2023-02-27T20:14:12.213Z,96007.84
2023-02-27T20:16:41.249Z,96003.94
2023-02-27T20:19:11.573Z,95991.66
2023-02-27T20:21:39.500Z,95996.97
2023-02-27T20:24:10.105Z,95993.88
2023-02-27T20:26:40.206Z,96000.84
2023-02-27T20:29:11.801Z,95992.88
2023-02-27T20:31:41.712Z,95994.13
2023-02-27T20:34:12.216Z,95994.34
2023-02-27T20:36:41.540Z,95993.28
2023-02-27T20:39:11.030Z,95984.53
2023-02-27T20:41:40.224Z,95986.19
2023-02-27T20:44:11.354Z,95986.97
2023-02-27T20:46:40.916Z,95973.47
2023-02-27T20:49:10.235Z,95972.84
2023-02-27T20:51:41.844Z,95973.66
2023-02-27T20:54:13.417Z,95977.53
2023-02-27T20:56:43.207Z,95970.75
2023-02-27T20:59:15.731Z,95962.78
2023-02-27T21:01:51.103Z,95963.59
2023-02-27T21:04:19.822Z,95961.28
2023-02-27T21:06:47.592Z,95966.19
2023-02-27T21:09:16.097Z,95969.25
2023-02-27T21:11:43.884Z,95970.28
2023-02-27T21:14:13.351Z,95967.41
2023-02-27T21:16:41.359Z,95960.88
2023-02-27T21:19:09.509Z,95973.16
2023-02-27T21:21:37.834Z,95969.88
2023-02-27T21:24:06.654Z,95973.53
2023-02-27T21:26:37.875Z,95972.72
2023-02-27T21:29:09.515Z,95968.63
2023-02-27T21:31:40.386Z,95971.69
2023-02-27T21:34:11.647Z,95969.03
2023-02-27T21:36:42.530Z,95970.25
2023-02-27T21:39:13.607Z,95969.25
2023-02-27T21:41:41.989Z,95968.38
2023-02-27T21:44:12.896Z,95964.13
2023-02-27T21:46:42.409Z,95965.31
2023-02-27T21:49:13.717Z,95959.94
2023-02-27T21:51:44.612Z,95951.78
2023-02-27T21:54:14.279Z,95951.97
2023-02-27T21:56:42.549Z,95947.47
2023-02-27T21:59:10.950Z,95952.84
2023-02-27T22:01:39.538Z,95947.53
2023-02-27T22:04:09.219Z,95943.22
2023-02-27T22:06:39.421Z,95939.31
2023-02-27T22:09:07.980Z,95931.72
2023-02-27T22:11:36.207Z,95936.41
2023-02-27T22:14:06.184Z,95940.69
2023-02-27T22:16:34.245Z,95934.56
2023-02-27T22:19:06.178Z,95938.16
2023-02-27T22:21:36.463Z,95934.81
2023-02-27T22:24:04.575Z,95934.00
2023-02-27T22:26:33.392Z,95926.56
2023-02-27T22:29:01.583Z,95924.22
2023-02-27T22:31:31.715Z,95913.41
2023-02-27T22:34:01.856Z,95918.25
2023-02-27T22:36:30.959Z,95917.38
2023-02-27T22:39:01.054Z,95926.31
2023-02-27T22:41:31.568Z,95917.91
2023-02-27T22:44:00.781Z,95911.16
2023-02-27T22:46:30.843Z,95910.50
2023-02-27T22:49:00.639Z,95910.31
2023-02-27T22:51:29.360Z,95903.56
2023-02-27T22:53:58.758Z,95910.47
2023-02-27T23:00:40.027Z,95904.41
2023-02-27T23:03:08.481Z,95901.97
2023-02-27T23:05:36.208Z,95896.84
2023-02-27T23:08:03.919Z,95897.84
2023-02-27T23:10:31.657Z,95891.53
2023-02-27T23:12:59.338Z,95894.38
2023-02-27T23:15:27.115Z,95891.94
2023-02-27T23:17:58.436Z,95899.50
2023-02-27T23:20:27.314Z,95900.31
2023-02-27T23:22:55.077Z,95902.34
2023-02-27T23:25:22.774Z,95906.19
2023-02-27T23:27:50.530Z,95903.72
2023-02-27T23:30:18.536Z,95897.97
2023-02-27T23:32:46.246Z,95904.91
2023-02-27T23:35:17.241Z,95893.88
2023-02-27T23:37:44.965Z,95899.16
2023-02-27T23:40:16.368Z,95900.44
2023-02-27T23:42:44.285Z,95902.63
2023-02-27T23:45:12.629Z,95905.06
2023-02-27T23:47:43.011Z,95896.31
2023-02-27T23:50:12.296Z,95891.81
2023-02-27T23:52:41.408Z,95902.59
2023-02-27T23:55:10.118Z,95894.75
2023-02-27T23:57:37.991Z,95896.09
